Time;durP1;ratioP1;P1;durP2;ratioP2;P2;SDS_P1;SDS_P2;PMS_P1;PMS_P2;Temp;Humidity;BMP_temperature;BMP_pressure;BME280_temperature;BME280_humidity;BME280_pressure;Samples;Min_cycle;Max_cycle;Signal;HPM_P1;HPM_P2
2022/12/28 00:01:49;;;;;;;47.88;28.67;;;;;;;3.01;80.37;94365.84;5065877;28;20059;-46
2022/12/28 00:04:14;;;;;;;46.47;27.17;;;;;;;2.99;80.70;94371.00;5067614;28;20024;-44
2022/12/28 00:06:40;;;;;;;45.22;28.95;;;;;;;3.05;80.52;94367.13;5066713;28;20539;-44
2022/12/28 00:09:05;;;;;;;49.38;29.95;;;;;;;2.93;80.35;94381.88;5065891;28;20085;-43
2022/12/28 00:11:31;;;;;;;48.97;30.10;;;;;;;3.00;80.93;94373.28;5063066;28;20032;-44
2022/12/28 00:14:00;;;;;;;52.08;31.23;;;;;;;3.00;80.66;94378.00;5064556;28;20036;-44
2022/12/28 00:16:25;;;;;;;;;;;;;;;2.81;80.89;94382.97;5065608;28;20114;-43
2022/12/28 00:18:51;;;;;;;48.83;25.50;;;;;;;2.90;81.14;94384.81;5060255;28;20026;-44
2022/12/28 00:21:16;;;;;;;41.50;17.98;;;;;;;2.66;81.23;94385.00;5067043;28;20028;-44
2022/12/28 00:23:42;;;;;;;46.72;19.58;;;;;;;2.77;81.79;94382.38;5064896;28;20029;-44
2022/12/28 00:26:10;;;;;;;30.38;18.15;;;;;;;2.85;81.91;94388.22;5066744;28;20033;-45
2022/12/28 00:28:35;;;;;;;70.45;33.30;;;;;;;2.63;81.84;94357.91;5067809;28;20021;-44
2022/12/28 00:31:01;;;;;;;57.28;29.23;;;;;;;2.87;82.12;94389.22;5067220;28;20036;-44
2022/12/28 00:33:27;;;;;;;46.63;26.27;;;;;;;3.02;81.73;94400.09;5063948;28;20680;-47
2022/12/28 00:35:53;;;;;;;47.63;27.20;;;;;;;3.05;81.33;94402.59;5064996;28;20024;-44
2022/12/28 00:38:19;;;;;;;45.45;26.98;;;;;;;3.01;81.27;94396.59;5067432;28;20167;-45
2022/12/28 00:40:44;;;;;;;53.35;29.60;;;;;;;3.01;81.66;94401.31;5066252;28;20119;-45
2022/12/28 00:43:10;;;;;;;51.50;29.65;;;;;;;3.16;81.65;94396.56;5064893;28;20123;-43
2022/12/28 00:45:37;;;;;;;48.53;25.42;;;;;;;3.16;81.35;94396.56;5064069;28;20493;-43
2022/12/28 00:48:03;;;;;;;49.20;26.35;;;;;;;3.04;82.00;94401.09;5058004;28;20023;-45
2022/12/28 00:50:28;;;;;;;54.55;29.83;;;;;;;3.03;81.94;94404.31;5063923;28;20028;-46
2022/12/28 00:52:54;;;;;;;57.80;31.25;;;;;;;2.94;82.24;94399.00;5065976;28;20436;-45
2022/12/28 00:55:19;;;;;;;53.25;31.52;;;;;;;2.93;82.83;94405.66;5060338;28;20606;-45
2022/12/28 00:57:45;;;;;;;76.72;41.92;;;;;;;3.00;81.87;94405.25;5059657;28;20028;-46
2022/12/28 01:00:11;;;;;;;55.88;35.00;;;;;;;3.12;81.72;94406.16;5061472;28;20074;-44
2022/12/28 01:02:36;;;;;;;67.50;37.22;;;;;;;2.73;82.25;94403.66;5060026;28;20037;-44
2022/12/28 01:05:02;;;;;;;57.47;32.45;;;;;;;2.52;83.77;94402.13;5059040;28;20078;-46
2022/12/28 01:07:28;;;;;;;50.90;29.58;;;;;;;2.51;84.44;94402.59;5063860;28;20036;-45
2022/12/28 01:09:53;;;;;;;54.70;28.13;;;;;;;2.42;85.62;94403.47;5056910;28;20532;-44
2022/12/28 01:12:18;;;;;;;46.72;26.92;;;;;;;2.47;86.29;94399.31;5060329;28;20021;-45
2022/12/28 01:14:44;;;;;;;55.50;29.50;;;;;;;2.22;85.69;94359.81;5062912;28;20032;-45
2022/12/28 01:17:09;;;;;;;58.17;29.50;;;;;;;2.47;85.95;94404.78;5064321;28;20178;-45
2022/12/28 01:19:35;;;;;;;51.75;28.92;;;;;;;2.67;84.82;94399.34;5062528;28;20059;-45
2022/12/28 01:22:00;;;;;;;62.75;34.25;;;;;;;2.78;84.77;94396.78;5063745;28;20085;-43
2022/12/28 01:24:26;;;;;;;46.60;27.45;;;;;;;2.78;84.20;94403.00;5065341;28;20024;-43
2022/12/28 01:26:51;;;;;;;47.95;25.52;;;;;;;2.80;84.24;94389.63;5065789;28;20032;-42
2022/12/28 01:29:17;;;;;;;61.33;32.72;;;;;;;2.92;84.00;94387.81;5063002;28;20032;-43
2022/12/28 01:31:42;;;;;;;61.78;33.03;;;;;;;2.98;82.94;94392.09;5065036;28;20040;-41
2022/12/28 01:34:08;;;;;;;60.75;32.50;;;;;;;2.92;82.97;94383.09;5066808;28;20033;-42
2022/12/28 01:36:36;;;;;;;57.92;31.75;;;;;;;3.08;82.55;94388.00;5067315;28;20035;-43
2022/12/28 01:39:04;;;;;;;53.25;31.73;;;;;;;3.01;82.53;94384.94;5065005;28;20052;-43
2022/12/28 01:41:30;;;;;;;62.88;32.70;;;;;;;3.12;82.63;94387.06;5065466;28;20029;-43
2022/12/28 01:43:56;;;;;;;73.28;36.40;;;;;;;3.07;83.02;94385.78;5061833;28;20045;-44
2022/12/28 01:46:24;;;;;;;81.07;41.65;;;;;;;3.04;83.41;94382.00;5067073;28;20041;-44
2022/12/28 01:48:56;;;;;;;60.33;35.85;;;;;;;3.24;82.42;94383.22;5046514;28;20077;-45
2022/12/28 01:51:21;;;;;;;75.07;39.90;;;;;;;3.08;82.51;94390.75;5065119;28;20822;-44
2022/12/28 01:53:49;;;;;;;71.93;41.42;;;;;;;2.98;83.11;94383.94;5062528;28;20032;-46
2022/12/28 01:56:14;;;;;;;76.22;40.05;;;;;;;2.88;83.52;94387.25;5064300;28;20025;-44
2022/12/28 01:58:40;;;;;;;65.60;39.05;;;;;;;2.60;83.89;94388.88;5045073;28;20055;-44
2022/12/28 02:01:05;;;;;;;80.53;41.25;;;;;;;2.48;85.34;94385.22;5046220;28;20484;-43
2022/12/28 02:03:34;;;;;;;63.70;36.42;;;;;;;2.40;86.17;94373.22;5049053;28;20039;-46
2022/12/28 02:06:01;;;;;;;61.37;33.60;;;;;;;2.52;86.34;94366.69;5068355;28;20028;-43
2022/12/28 02:08:52;;;;;;;61.65;34.53;;;;;;;2.30;86.28;94328.22;5068538;28;20036;-44
2022/12/28 02:11:18;;;;;;;59.63;34.97;;;;;;;2.68;86.11;94373.59;5070796;28;20036;-44
2022/12/28 02:13:47;;;;;;;64.97;34.75;;;;;;;2.79;85.60;94374.50;5070836;28;20028;-43
2022/12/28 02:16:13;;;;;;;56.08;32.28;;;;;;;2.90;84.28;94377.34;5061813;28;20047;-43
2022/12/28 02:18:40;;;;;;;60.72;33.50;;;;;;;2.86;83.28;94376.81;5065660;28;20025;-44
2022/12/28 02:21:08;;;;;;;62.42;36.25;;;;;;;2.96;83.38;94382.91;5068081;28;20423;-45
2022/12/28 02:23:52;;;;;;;66.00;35.45;;;;;;;2.82;83.38;94376.28;5068616;28;20041;-45
2022/12/28 02:26:46;;;;;;;78.97;38.42;;;;;;;2.86;83.69;94374.09;5070347;28;20074;-44
2022/12/28 02:29:36;;;;;;;61.17;32.90;;;;;;;2.89;83.52;94380.56;5069694;28;20504;-43
2022/12/28 02:32:19;;;;;;;46.05;26.15;;;;;;;2.94;83.36;94372.47;5068434;28;20040;-44
2022/12/28 02:35:00;;;;;;;52.35;28.65;;;;;;;2.96;83.77;94377.44;5066453;28;20684;-44
2022/12/28 02:37:49;;;;;;;52.80;30.60;;;;;;;2.78;83.79;94378.44;5067787;28;20492;-43
2022/12/28 02:40:23;;;;;;;47.35;28.23;;;;;;;2.75;84.30;94376.66;5067441;28;20040;-42
2022/12/28 02:42:50;;;;;;;39.88;26.23;;;;;;;2.62;84.76;94370.78;5068756;28;20024;-43
2022/12/28 02:51:20;;;;;;;44.33;24.98;;;;;;;2.92;84.89;94355.81;5069584;28;20561;-44
2022/12/28 02:56:06;;;;;;;49.05;27.90;;;;;;;2.96;84.39;94356.38;5029332;28;20039;-43
2022/12/28 02:57:08;;;;;;;36.72;23.50;;;;;;;2.86;84.45;94351.50;5067401;28;20555;-44
2022/12/28 02:59:55;;;;;;;39.10;24.30;;;;;;;2.80;84.55;94343.28;5051272;28;20048;-45
2022/12/28 03:02:48;;;;;;;39.03;24.55;;;;;;;2.94;84.34;94347.94;5064740;28;20048;-46
2022/12/28 03:05:17;;;;;;;39.40;23.58;;;;;;;3.00;84.05;94348.72;5068086;28;20036;-47
2022/12/28 03:08:18;;;;;;;39.72;23.13;;;;;;;2.89;83.93;94342.38;5069493;28;20036;-44
2022/12/28 03:11:08;;;;;;;34.22;21.13;;;;;;;2.94;84.38;94331.56;5055173;28;20548;-44
2022/12/28 03:13:41;;;;;;;42.55;22.65;;;;;;;2.95;84.31;94343.19;5049636;28;20082;-44
2022/12/28 03:16:10;;;;;;;37.72;23.70;;;;;;;2.80;84.06;94354.19;5064404;28;20036;-43
2022/12/28 03:32:25;;;;;;;43.33;24.65;;;;;;;2.92;85.63;94366.72;5066704;28;20039;-43
2022/12/28 03:34:50;;;;;;;39.70;22.23;;;;;;;2.76;85.28;94350.91;5068739;28;20024;-45
2022/12/28 03:37:24;;;;;;;36.55;20.98;;;;;;;2.80;85.48;94367.06;5062152;28;20047;-46
2022/12/28 03:39:55;;;;;;;42.38;23.90;;;;;;;2.50;86.07;94362.94;5068332;28;20024;-45
2022/12/28 03:45:41;;;;;;;43.13;23.25;;;;;;;2.43;88.56;94374.97;5063919;28;20727;-44
2022/12/28 03:48:07;;;;;;;20.88;12.90;;;;;;;2.50;88.92;94355.50;5050285;28;20041;-44
2022/12/28 03:50:37;;;;;;;21.55;13.60;;;;;;;2.70;90.29;94371.16;5051010;28;20465;-43
2022/12/28 03:53:03;;;;;;;22.65;15.10;;;;;;;2.62;89.08;94370.78;5049862;28;20115;-44
2022/12/28 03:55:28;;;;;;;21.42;12.23;;;;;;;2.58;88.82;94364.78;5066968;28;20575;-44
2022/12/28 03:57:55;;;;;;;15.10;10.35;;;;;;;2.53;89.62;94338.22;5068028;28;20024;-43
2022/12/28 04:00:20;;;;;;;16.50;10.88;;;;;;;2.73;90.42;94364.75;5066421;28;20062;-45
2022/12/28 04:02:46;;;;;;;13.18;10.07;;;;;;;2.80;90.43;94365.09;5049799;28;20033;-44
2022/12/28 04:05:11;;;;;;;15.70;10.40;;;;;;;2.86;89.82;94370.59;5066896;28;20040;-45
2022/12/28 04:07:37;;;;;;;22.15;13.60;;;;;;;2.89;88.25;94364.97;5066833;28;20028;-43
2022/12/28 04:10:02;;;;;;;18.17;11.68;;;;;;;2.96;87.50;94372.00;5066294;28;20027;-44
2022/12/28 04:12:28;;;;;;;19.27;11.57;;;;;;;2.98;87.62;94375.00;5062919;28;20103;-43
2022/12/28 04:14:53;;;;;;;18.17;11.90;;;;;;;2.90;87.57;94374.63;5068169;28;20496;-44
2022/12/28 04:17:19;;;;;;;17.85;11.05;;;;;;;3.07;87.34;94366.66;5050447;28;20110;-45
2022/12/28 04:19:44;;;;;;;13.85;8.80;;;;;;;3.11;88.15;94361.00;5065794;28;20016;-43
2022/12/28 04:22:09;;;;;;;11.07;7.63;;;;;;;3.00;88.81;94354.19;5067290;28;20039;-44
2022/12/28 04:24:35;;;;;;;7.32;4.90;;;;;;;3.17;88.71;94345.44;5068011;28;20040;-45
2022/12/28 04:27:00;;;;;;;12.77;6.82;;;;;;;3.19;88.54;94346.47;5066513;28;20021;-44
2022/12/28 04:29:26;;;;;;;10.02;6.07;;;;;;;3.27;88.66;94339.34;5067946;28;20097;-45
2022/12/28 04:31:51;;;;;;;7.72;5.93;;;;;;;3.27;88.83;94333.16;5067225;28;20032;-45
2022/12/28 04:34:17;;;;;;;32.00;9.55;;;;;;;3.19;88.21;94345.69;5064174;28;20021;-43
2022/12/28 04:36:42;;;;;;;12.55;8.95;;;;;;;3.17;88.42;94338.00;5067391;28;20547;-45
2022/12/28 04:39:08;;;;;;;23.27;13.60;;;;;;;3.30;87.10;94341.13;5065438;28;20032;-46
2022/12/28 04:41:33;;;;;;;10.00;6.90;;;;;;;3.32;87.17;94344.13;5060606;28;20028;-43
2022/12/28 04:43:59;;;;;;;10.60;5.50;;;;;;;3.30;86.65;94330.22;5066961;28;20025;-44
2022/12/28 04:46:24;;;;;;;9.38;5.95;;;;;;;3.45;86.43;94347.25;5064163;28;20475;-42
2022/12/28 04:48:50;;;;;;;25.73;16.48;;;;;;;3.40;86.74;94360.84;5066842;28;20036;-44
2022/12/28 04:51:18;;;;;;;34.30;20.13;;;;;;;3.20;85.51;94363.59;5064672;28;20035;-43
2022/12/28 04:53:44;;;;;;;39.17;23.30;;;;;;;3.20;85.02;94371.78;5065298;28;20574;-44
2022/12/28 04:56:11;;;;;;;28.30;18.42;;;;;;;3.21;85.55;94376.00;5062684;28;20025;-44
2022/12/28 04:58:36;;;;;;;18.67;12.25;;;;;;;3.31;85.74;94378.13;5064678;28;20098;-43
2022/12/28 05:01:04;;;;;;;9.73;7.25;;;;;;;3.36;86.09;94382.13;5067366;28;20459;-43
2022/12/28 05:03:29;;;;;;;9.27;6.43;;;;;;;3.38;86.41;94376.94;5066981;28;20391;-43
2022/12/28 05:06:00;;;;;;;24.33;15.73;;;;;;;2.96;86.67;94374.72;5066901;28;20021;-46
2022/12/28 05:08:25;;;;;;;66.60;34.38;;;;;;;2.86;87.84;94376.81;5064868;28;20525;-44
2022/12/28 05:10:51;;;;;;;37.10;23.00;;;;;;;2.50;88.72;94347.34;5066155;28;20032;-44
2022/12/28 05:13:16;;;;;;;33.58;18.85;;;;;;;2.94;88.27;94394.28;5049057;28;20016;-43
2022/12/28 05:15:41;;;;;;;18.77;13.35;;;;;;;3.02;87.50;94405.53;5060001;28;20078;-45
2022/12/28 05:18:07;;;;;;;16.70;10.88;;;;;;;3.14;86.39;94403.72;5063881;28;20037;-45
2022/12/28 05:20:32;;;;;;;16.40;10.32;;;;;;;3.15;86.11;94411.41;5067164;28;20031;-45
2022/12/28 05:22:58;;;;;;;10.57;6.75;;;;;;;3.13;86.92;94408.41;5062148;28;20025;-47
2022/12/28 05:25:23;;;;;;;11.60;7.07;;;;;;;3.19;87.29;94417.41;5066824;28;20024;-44
2022/12/28 05:27:48;;;;;;;16.48;8.25;;;;;;;2.99;86.98;94417.38;5066705;28;20031;-46
2022/12/28 05:30:14;;;;;;;8.75;5.78;;;;;;;3.06;87.10;94409.56;5064502;28;20025;-45
2022/12/28 05:32:39;;;;;;;10.60;5.88;;;;;;;3.23;87.62;94395.38;5064291;28;20031;-46
2022/12/28 05:35:05;;;;;;;11.20;7.13;;;;;;;3.22;86.72;94394.63;5063920;28;20025;-44
2022/12/28 05:37:31;;;;;;;18.92;7.85;;;;;;;3.33;86.63;94411.16;5065708;28;20035;-46
2022/12/28 05:39:56;;;;;;;9.45;6.22;;;;;;;2.95;86.51;94403.97;5066346;28;20063;-43
2022/12/28 05:42:22;;;;;;;12.60;7.10;;;;;;;3.21;86.64;94423.13;5065114;28;20503;-44
2022/12/28 05:44:47;;;;;;;10.38;7.20;;;;;;;2.99;86.51;94431.78;5062237;28;20416;-44
2022/12/28 05:47:13;;;;;;;21.83;12.57;;;;;;;2.78;87.51;94438.44;5064268;28;20499;-46
2022/12/28 05:49:38;;;;;;;14.70;8.40;;;;;;;2.87;88.09;94432.88;5047067;28;20031;-45
2022/12/28 05:52:04;;;;;;;13.15;7.25;;;;;;;3.00;87.77;94435.28;5061790;28;20033;-46
2022/12/28 05:54:29;;;;;;;10.75;7.72;;;;;;;2.97;87.12;94438.94;5061223;28;20027;-43
2022/12/28 05:56:55;;;;;;;9.43;7.28;;;;;;;2.81;87.53;94448.41;5062077;28;20435;-44
2022/12/28 05:59:20;;;;;;;13.88;8.45;;;;;;;2.90;87.53;94445.53;5063830;28;20444;-46
2022/12/28 06:01:45;;;;;;;10.45;7.00;;;;;;;2.80;86.81;94436.00;5065879;28;20035;-43
2022/12/28 06:04:17;;;;;;;11.88;6.95;;;;;;;2.76;87.13;94443.63;5065855;28;20072;-43
2022/12/28 06:06:43;;;;;;;8.07;5.95;;;;;;;2.75;87.84;94435.91;5064432;28;20028;-43
2022/12/28 06:09:08;;;;;;;10.95;6.45;;;;;;;2.72;87.91;94415.81;5061349;28;20024;-42
2022/12/28 06:11:34;;;;;;;8.80;6.10;;;;;;;2.90;87.95;94439.34;5062135;28;20025;-43
2022/12/28 06:13:59;;;;;;;10.50;6.70;;;;;;;2.84;87.50;94452.91;5059740;28;20021;-44
2022/12/28 06:16:27;;;;;;;10.55;7.45;;;;;;;2.94;87.57;94451.56;5064855;28;20385;-46
2022/12/28 06:18:53;;;;;;;21.13;11.90;;;;;;;3.04;86.46;94460.38;5063745;28;20649;-46
2022/12/28 06:21:27;;;;;;;51.55;26.73;;;;;;;3.16;85.78;94456.56;5063832;28;20113;-44
2022/12/28 06:23:56;;;;;;;17.48;11.63;;;;;;;2.92;85.78;94453.28;5064409;28;20028;-43
2022/12/28 06:26:22;;;;;;;11.60;7.30;;;;;;;3.13;86.30;94454.78;5048298;28;20043;-43
2022/12/28 06:28:48;;;;;;;17.83;8.30;;;;;;;3.11;86.00;94448.31;5047477;28;20687;-45
2022/12/28 06:31:24;;;;;;;21.58;11.60;;;;;;;3.01;86.32;94440.25;5063909;28;20037;-43
2022/12/28 06:33:52;;;;;;;35.55;14.40;;;;;;;3.17;85.68;94438.97;5063684;28;20027;-46
2022/12/28 06:36:38;;;;;;;36.13;18.87;;;;;;;2.92;85.58;94426.72;5065212;28;20518;-45
2022/12/28 06:39:07;;;;;;;43.20;21.42;;;;;;;3.01;85.58;94437.50;5064961;28;20544;-44
2022/12/28 06:41:32;;;;;;;39.65;21.88;;;;;;;2.95;82.20;94412.16;5063734;28;20031;-43
2022/12/28 06:43:58;;;;;;;27.95;14.23;;;;;;;3.11;81.48;94416.31;5046545;28;20036;-44
2022/12/28 06:46:26;;;;;;;20.90;8.85;;;;;;;3.30;77.27;94425.72;5063979;28;20162;-43
2022/12/28 06:48:53;;;;;;;8.65;5.85;;;;;;;3.43;77.30;94415.22;5063607;28;20032;-44
2022/12/28 06:51:21;;;;;;;10.52;5.93;;;;;;;3.58;75.48;94429.53;5064584;28;20023;-45
2022/12/28 06:53:48;;;;;;;17.45;10.80;;;;;;;3.75;75.48;94421.50;5068540;28;20039;-44
2022/12/28 06:56:16;;;;;;;55.72;28.75;;;;;;;3.77;77.93;94421.78;5068550;28;20024;-44
2022/12/28 06:58:42;;;;;;;46.40;26.83;;;;;;;3.92;78.28;94416.97;5068066;28;20036;-48
2022/12/28 07:01:13;;;;;;;52.47;28.30;;;;;;;4.03;78.06;94405.41;5063081;28;20147;-44
2022/12/28 07:03:39;;;;;;;32.08;19.48;;;;;;;4.28;77.46;94416.31;5064449;28;20520;-45
2022/12/28 07:06:05;;;;;;;28.35;15.35;;;;;;;4.49;75.90;94417.72;5065310;28;20032;-45
2022/12/28 07:08:31;;;;;;;30.30;15.93;;;;;;;4.70;75.80;94417.63;5068361;28;20024;-46
2022/12/28 07:11:07;;;;;;;28.95;17.25;;;;;;;4.82;75.25;94416.47;5066323;28;20082;-45
2022/12/28 07:13:33;;;;;;;37.85;20.88;;;;;;;4.94;74.46;94420.75;5067005;28;20024;-45
2022/12/28 07:16:10;;;;;;;29.85;16.42;;;;;;;5.04;74.03;94416.59;5066120;28;20108;-47
2022/12/28 07:18:36;;;;;;;23.00;14.10;;;;;;;5.07;73.82;94421.81;5065806;28;20024;-43
2022/12/28 07:21:09;;;;;;;10.70;8.43;;;;;;;5.19;73.31;94425.38;5060186;28;20106;-45
2022/12/28 07:23:35;;;;;;;10.27;7.10;;;;;;;5.26;72.03;94436.59;5049238;28;20060;-45
2022/12/28 07:26:08;;;;;;;6.75;4.18;;;;;;;5.31;69.17;94441.38;5067045;28;20192;-44
2022/12/28 07:28:38;;;;;;;4.18;3.40;;;;;;;5.36;67.58;94437.91;5066121;28;20481;-45
2022/12/28 07:31:05;;;;;;;5.97;3.72;;;;;;;5.35;64.72;94438.38;5062888;28;20027;-44
2022/12/28 07:33:31;;;;;;;5.80;3.40;;;;;;;5.23;63.60;94442.31;5065176;28;20017;-45
2022/12/28 07:35:57;;;;;;;6.65;3.95;;;;;;;5.16;63.62;94420.88;5065717;28;20602;-43
2022/12/28 07:38:22;;;;;;;8.13;4.25;;;;;;;5.22;65.02;94411.44;5064878;28;20705;-46
2022/12/28 07:40:48;;;;;;;5.85;4.45;;;;;;;5.32;66.97;94418.25;5065500;28;20016;-47
2022/12/28 07:43:13;;;;;;;7.80;5.03;;;;;;;5.47;67.77;94426.25;5066672;28;20021;-45
2022/12/28 07:45:39;;;;;;;18.65;12.52;;;;;;;5.57;65.73;94415.81;5068648;28;20029;-47
2022/12/28 07:48:04;;;;;;;17.48;10.60;;;;;;;5.58;65.38;94407.13;5066750;28;20028;-45
2022/12/28 07:50:30;;;;;;;14.38;8.45;;;;;;;5.72;63.94;94406.16;5066045;28;20024;-45
2022/12/28 07:52:55;;;;;;;11.80;7.80;;;;;;;5.81;66.17;94410.66;5063788;28;20016;-45
2022/12/28 07:55:21;;;;;;;10.88;6.78;;;;;;;5.91;66.39;94403.75;5046917;28;20575;-45
2022/12/28 07:57:46;;;;;;;8.30;5.57;;;;;;;6.01;65.70;94400.28;5044761;28;20025;-45
2022/12/28 08:00:12;;;;;;;9.77;6.55;;;;;;;6.01;64.57;94403.03;5063259;28;20151;-44
2022/12/28 08:02:38;;;;;;;9.88;6.18;;;;;;;6.10;63.87;94411.03;5063163;28;20570;-43
2022/12/28 08:05:03;;;;;;;10.15;6.80;;;;;;;6.18;63.13;94397.56;5066127;28;20120;-44
2022/12/28 08:07:29;;;;;;;9.68;6.70;;;;;;;6.21;61.72;94402.06;5066134;28;20064;-43
2022/12/28 08:09:54;;;;;;;10.18;7.28;;;;;;;6.33;59.90;94398.06;5062762;28;20032;-43
2022/12/28 08:12:20;;;;;;;5.35;4.43;;;;;;;6.43;61.09;94412.28;5064571;28;20020;-43
2022/12/28 08:14:45;;;;;;;4.72;4.28;;;;;;;6.47;59.55;94413.53;5047665;28;20036;-44
2022/12/28 08:17:11;;;;;;;5.72;4.88;;;;;;;6.56;58.38;94416.03;5064300;28;20761;-45
2022/12/28 08:19:36;;;;;;;10.98;5.50;;;;;;;6.60;60.28;94416.53;5061698;28;20031;-46
2022/12/28 08:22:02;;;;;;;8.27;4.90;;;;;;;6.63;58.80;94418.25;5060857;28;20036;-43
2022/12/28 08:24:27;;;;;;;8.77;4.53;;;;;;;6.65;59.42;94424.00;5059368;28;20043;-42
2022/12/28 08:26:52;;;;;;;11.25;4.53;;;;;;;6.79;59.04;94431.25;5061746;28;20021;-44
2022/12/28 08:29:20;;;;;;;7.45;5.25;;;;;;;6.70;58.77;94397.81;5062965;28;20043;-45
2022/12/28 08:31:47;;;;;;;11.18;7.15;;;;;;;6.89;58.07;94416.00;5063258;28;20024;-45
2022/12/28 08:34:15;;;;;;;15.20;8.35;;;;;;;7.08;56.03;94431.97;5062215;28;20028;-43
2022/12/28 08:36:41;;;;;;;15.10;9.45;;;;;;;7.00;55.96;94400.75;5064510;28;20025;-41
2022/12/28 08:39:07;;;;;;;16.95;7.72;;;;;;;7.27;54.34;94428.16;5061941;28;20047;-40
2022/12/28 08:41:33;;;;;;;19.65;5.68;;;;;;;7.27;53.50;94430.16;5051633;28;20036;-39
2022/12/28 08:43:58;;;;;;;18.17;9.13;;;;;;;7.35;52.98;94428.38;5058960;28;20032;-39
2022/12/28 08:46:30;;;;;;;3.85;3.42;;;;;;;7.36;47.14;94435.38;5059149;28;20043;-40
2022/12/28 08:48:57;;;;;;;4.30;3.13;;;;;;;7.38;48.37;94435.63;5060597;28;20063;-40
2022/12/28 08:51:30;;;;;;;13.55;3.13;;;;;;;7.33;48.59;94450.88;5059535;28;20106;-39
2022/12/28 08:53:55;;;;;;;3.65;2.25;;;;;;;7.36;47.94;94451.88;5056228;28;20028;-41
2022/12/28 08:56:26;;;;;;;7.13;4.47;;;;;;;7.34;50.35;94449.59;5057818;28;20036;-40
2022/12/28 08:58:52;;;;;;;13.40;7.50;;;;;;;7.27;52.88;94452.88;5057158;28;20068;-41
2022/12/28 09:01:26;;;;;;;13.60;10.02;;;;;;;7.32;52.48;94451.38;5058913;28;20032;-40
2022/12/28 09:03:54;;;;;;;14.25;9.45;;;;;;;7.35;53.63;94448.38;5060308;28;20036;-40
2022/12/28 09:06:22;;;;;;;13.15;8.65;;;;;;;7.35;53.75;94451.13;5057156;28;20048;-40
2022/12/28 09:08:49;;;;;;;14.43;9.32;;;;;;;7.45;52.01;94444.09;5057942;28;20043;-41
2022/12/28 09:11:15;;;;;;;12.93;9.00;;;;;;;7.53;52.67;94447.06;5054560;28;20040;-40
2022/12/28 09:13:41;;;;;;;90.30;12.07;;;;;;;7.63;52.13;94443.53;5059204;28;20088;-40
2022/12/28 09:16:08;;;;;;;14.45;7.10;;;;;;;7.72;52.61;94456.25;5058791;28;20732;-39
2022/12/28 09:18:34;;;;;;;14.27;9.23;;;;;;;7.73;53.87;94451.50;5059051;28;20093;-40
2022/12/28 09:21:08;;;;;;;10.52;6.60;;;;;;;7.72;51.20;94441.75;5060415;28;20116;-40
2022/12/28 09:23:34;;;;;;;7.38;4.55;;;;;;;7.71;49.48;94445.75;5057656;28;20749;-41
2022/12/28 09:26:11;;;;;;;13.38;6.25;;;;;;;7.78;56.02;94442.47;5057859;28;20128;-39
2022/12/28 09:28:37;;;;;;;9.43;6.68;;;;;;;7.50;58.37;94435.06;5059195;28;20152;-40
2022/12/28 09:31:07;;;;;;;11.10;6.57;;;;;;;7.31;59.39;94434.16;5063185;28;20543;-40
2022/12/28 09:36:19;;;;;;;10.18;6.75;;;;;;;7.02;61.39;94415.47;5060023;28;20059;-40
2022/12/28 09:38:45;;;;;;;13.13;8.60;;;;;;;7.11;61.52;94426.19;5061581;28;20578;-40
2022/12/28 09:41:34;;;;;;;13.75;7.85;;;;;;;7.00;61.88;94422.72;5059393;28;20040;-39
2022/12/28 09:44:13;;;;;;;9.85;7.03;;;;;;;7.03;62.49;94424.47;5061183;28;20094;-39
2022/12/28 09:46:42;;;;;;;11.95;6.43;;;;;;;6.95;62.43;94418.00;5062775;28;20071;-39
2022/12/28 09:49:15;;;;;;;9.00;6.45;;;;;;;6.96;61.73;94401.00;5043152;28;20042;-42
2022/12/28 09:51:57;;;;;;;14.65;7.15;;;;;;;7.12;62.32;94413.22;5058069;28;21666;-40
2022/12/28 09:54:23;;;;;;;10.30;6.25;;;;;;;7.20;60.58;94412.19;5064760;28;20079;-41
2022/12/28 09:56:48;;;;;;;47.40;21.05;;;;;;;7.20;60.86;94409.44;5060593;28;20488;-40
2022/12/28 09:59:18;;;;;;;49.38;22.95;;;;;;;7.15;62.51;94418.44;5047223;28;20056;-41
2022/12/28 10:01:54;;;;;;;24.50;13.38;;;;;;;7.25;61.58;94408.69;5045898;28;20097;-40
2022/12/28 10:04:20;;;;;;;40.30;9.00;;;;;;;7.29;61.26;94395.44;5045287;28;20086;-40
2022/12/28 10:06:46;;;;;;;17.15;8.18;;;;;;;7.36;60.97;94396.91;5058270;28;20024;-40
2022/12/28 10:09:18;;;;;;;9.70;6.75;;;;;;;7.44;59.70;94398.63;5058542;28;20031;-41
2022/12/28 10:11:44;;;;;;;9.45;6.65;;;;;;;7.50;61.30;94395.84;5047569;28;20129;-41
2022/12/28 10:14:35;;;;;;;7.15;6.07;;;;;;;7.46;59.21;94401.63;5058920;28;20024;-40
2022/12/28 10:17:00;;;;;;;9.52;6.15;;;;;;;7.50;58.98;94391.13;5039458;28;20030;-41
2022/12/28 10:19:27;;;;;;;10.45;6.97;;;;;;;7.57;59.95;94392.59;5061690;28;20748;-40
2022/12/28 10:22:01;;;;;;;14.55;9.05;;;;;;;7.62;58.99;94392.56;5059553;28;20035;-41
2022/12/28 10:24:28;;;;;;;16.17;10.07;;;;;;;7.65;60.12;94394.28;5057969;28;20090;-40
2022/12/28 10:26:55;;;;;;;9.75;6.40;;;;;;;7.74;59.10;94393.25;5059361;28;20032;-40
2022/12/28 10:29:22;;;;;;;7.50;5.13;;;;;;;7.90;58.24;94394.44;5043842;28;20028;-41
2022/12/28 10:32:01;;;;;;;7.78;6.03;;;;;;;8.06;58.70;94388.81;5056896;28;20039;-39
2022/12/28 10:34:27;;;;;;;;;;;;;;;8.23;61.02;94388.69;5058572;28;20033;-39
2022/12/28 10:36:54;;;;;;;13.40;8.18;;;;;;;8.40;59.74;94381.13;5045001;28;19916;-40
2022/12/28 10:39:28;;;;;;;8.45;6.47;;;;;;;8.47;56.67;94386.06;5065194;28;20036;-40
2022/12/28 10:41:55;;;;;;;33.90;7.47;;;;;;;8.52;57.23;94377.00;5059129;28;20036;-43
2022/12/28 10:44:40;;;;;;;8.25;5.90;;;;;;;8.81;56.57;94384.53;5037970;28;20032;-39
2022/12/28 10:47:17;;;;;;;12.07;4.95;;;;;;;8.96;53.95;94387.66;5046536;28;20055;-40
2022/12/28 10:49:49;;;;;;;12.45;7.22;;;;;;;8.87;51.63;94379.72;5061970;28;20040;-41
2022/12/28 10:52:14;;;;;;;5.95;4.75;;;;;;;8.94;50.58;94381.16;5063014;28;20025;-39
2022/12/28 10:54:41;;;;;;;8.27;4.63;;;;;;;9.08;52.43;94380.75;5061213;28;20594;-44
2022/12/28 10:57:18;;;;;;;14.10;5.10;;;;;;;9.20;53.02;94377.88;5059627;28;20033;-42
2022/12/28 10:59:45;;;;;;;15.55;6.22;;;;;;;9.24;52.52;94378.34;5059074;28;20503;-39
2022/12/28 11:02:24;;;;;;;9.50;6.47;;;;;;;9.35;54.63;94373.47;5057011;28;20043;-39
2022/12/28 11:04:54;;;;;;;;;;;;;;;9.43;54.83;94368.84;5058442;28;20076;-38
2022/12/28 11:07:25;;;;;;;;;;;;;;;9.38;52.52;94371.66;5066288;28;19920;-39
2022/12/28 11:09:51;;;;;;;8.60;5.22;;;;;;;9.36;54.08;94369.41;5059070;28;20430;-38
2022/12/28 11:12:22;;;;;;;11.73;5.68;;;;;;;9.37;52.22;94364.66;5059270;28;20036;-40
2022/12/28 11:14:48;;;;;;;9.10;5.30;;;;;;;9.32;51.87;94362.72;5062635;28;20028;-41
2022/12/28 11:17:13;;;;;;;12.27;4.47;;;;;;;9.28;50.36;94365.00;5063070;28;20025;-41
2022/12/28 11:19:38;;;;;;;5.72;4.22;;;;;;;9.04;49.94;94360.25;5056202;28;20036;-41
2022/12/28 11:22:04;;;;;;;12.65;5.88;;;;;;;8.84;50.31;94369.72;5065217;28;20093;-41
2022/12/28 11:24:29;;;;;;;12.18;8.55;;;;;;;8.91;49.81;94373.91;5063145;28;20032;-41
2022/12/28 11:26:56;;;;;;;11.63;6.60;;;;;;;8.75;51.70;94372.06;5065495;28;20021;-41
2022/12/28 11:29:22;;;;;;;3.95;3.22;;;;;;;8.65;51.28;94379.16;5065784;28;20112;-42
2022/12/28 11:32:07;;;;;;;4.70;3.88;;;;;;;8.37;52.12;94366.38;5059907;28;20025;-41
2022/12/28 11:34:33;;;;;;;4.00;1.90;;;;;;;8.30;51.86;94368.94;5059970;28;20076;-41
2022/12/28 11:36:58;;;;;;;2.60;2.00;;;;;;;8.38;51.39;94367.13;5045468;28;20411;-40
2022/12/28 11:39:24;;;;;;;3.25;2.55;;;;;;;8.25;52.51;94375.22;5065322;28;20024;-41
2022/12/28 11:41:51;;;;;;;3.45;2.63;;;;;;;8.30;52.73;94371.69;5063543;28;20361;-42
2022/12/28 11:44:39;;;;;;;3.38;2.70;;;;;;;8.25;52.56;94364.22;5046473;28;20475;-41
2022/12/28 11:47:20;;;;;;;2.47;2.28;;;;;;;8.12;52.64;94366.78;5047628;28;20044;-40
2022/12/28 11:49:47;;;;;;;3.13;1.63;;;;;;;8.16;52.64;94370.00;5063944;28;20033;-41
2022/12/28 11:52:15;;;;;;;2.60;2.40;;;;;;;8.15;53.15;94379.50;5065335;28;20032;-40
2022/12/28 11:55:01;;;;;;;2.25;2.03;;;;;;;8.08;54.43;94371.81;5065698;28;20044;-41
2022/12/28 11:57:37;;;;;;;2.58;2.05;;;;;;;7.93;54.93;94365.91;5063240;28;20040;-42
2022/12/28 12:00:15;;;;;;;4.07;2.50;;;;;;;8.06;54.62;94366.81;5047221;28;20122;-41
2022/12/28 12:02:56;;;;;;;3.63;2.17;;;;;;;7.96;54.31;94360.16;5065588;28;20036;-42
2022/12/28 12:05:37;;;;;;;2.63;2.25;;;;;;;7.86;55.18;94358.22;5057260;28;20087;-41